createdAt,value
2022-10-04T00:00:46.208Z,6.85
2022-10-04T00:03:22.591Z,6.68
2022-10-04T00:05:52.752Z,6.28
2022-10-04T00:08:27.101Z,6.97
2022-10-04T00:11:03.154Z,7.05
2022-10-04T00:13:30.559Z,6.65
2022-10-04T00:15:58.886Z,6.60
2022-10-04T00:18:30.882Z,6.75
2022-10-04T00:21:03.771Z,5.95
2022-10-04T00:23:44.036Z,6.63
2022-10-04T00:26:47.953Z,6.90
2022-10-04T00:29:31.580Z,5.93
2022-10-04T00:32:29.618Z,6.20
2022-10-04T00:34:57.924Z,6.00
2022-10-04T00:37:26.168Z,6.45
2022-10-04T00:40:14.365Z,6.78
2022-10-04T00:42:55.748Z,5.65
2022-10-04T00:45:30.038Z,6.40
2022-10-04T00:48:20.398Z,6.10
2022-10-04T00:50:52.660Z,5.85
2022-10-04T00:53:36.296Z,6.25
2022-10-04T00:56:06.781Z,6.38
2022-10-04T00:58:39.110Z,5.47
2022-10-04T01:01:06.722Z,5.40
2022-10-04T01:03:39.637Z,5.75
2022-10-04T01:06:10.215Z,5.85
2022-10-04T01:08:44.183Z,5.80
2022-10-04T01:11:15.308Z,5.43
2022-10-04T01:13:47.854Z,5.43
2022-10-04T01:16:17.945Z,5.68
2022-10-04T01:18:46.797Z,5.35
2022-10-04T01:21:25.985Z,6.15
2022-10-04T01:24:14.316Z,5.57
2022-10-04T01:26:42.890Z,5.63
2022-10-04T01:29:13.401Z,5.27
2022-10-04T01:31:43.191Z,5.57
2022-10-04T01:34:13.220Z,6.55
2022-10-04T01:36:39.956Z,5.40
2022-10-04T01:39:08.624Z,5.53
2022-10-04T01:41:43.353Z,5.10
2022-10-04T01:44:16.844Z,5.13
2022-10-04T01:46:44.207Z,5.00
2022-10-04T01:49:17.909Z,4.82
2022-10-04T01:51:51.279Z,4.90
2022-10-04T01:54:23.222Z,4.80
2022-10-04T01:56:56.998Z,5.28
2022-10-04T01:59:27.187Z,5.60
2022-10-04T02:01:58.529Z,4.78
2022-10-04T02:04:29.074Z,4.57
2022-10-04T02:06:59.101Z,5.93
2022-10-04T02:09:31.634Z,5.18
2022-10-04T02:11:58.850Z,5.28
2022-10-04T02:14:29.092Z,5.10
2022-10-04T02:16:55.927Z,5.88
2022-10-04T02:19:25.947Z,5.13
2022-10-04T02:21:53.692Z,4.65
2022-10-04T02:24:21.159Z,4.97
2022-10-04T02:26:52.675Z,4.78
2022-10-04T02:29:20.787Z,4.63
2022-10-04T02:31:49.103Z,4.88
2022-10-04T02:34:18.730Z,4.15
2022-10-04T02:36:45.882Z,4.60
2022-10-04T02:39:17.071Z,4.68
2022-10-04T02:41:46.519Z,4.53
2022-10-04T02:46:49.749Z,4.57
2022-10-04T02:49:24.636Z,4.05
2022-10-04T02:51:58.104Z,4.60
2022-10-04T02:54:30.911Z,4.35
2022-10-04T02:56:58.598Z,4.85
2022-10-04T02:59:35.534Z,4.00
2022-10-04T03:02:02.752Z,4.72
2022-10-04T03:04:33.390Z,4.53
2022-10-04T03:07:02.302Z,4.72
2022-10-04T03:09:30.177Z,4.68
2022-10-04T03:11:57.471Z,4.60
2022-10-04T03:14:28.209Z,4.45
2022-10-04T03:16:57.783Z,4.90
2022-10-04T03:19:27.914Z,4.50
2022-10-04T03:21:57.812Z,4.85
2022-10-04T03:24:37.125Z,4.78
2022-10-04T03:27:08.205Z,5.50
2022-10-04T03:29:41.181Z,5.20
2022-10-04T03:32:07.863Z,5.05
2022-10-04T03:34:37.045Z,4.72
2022-10-04T03:37:07.109Z,5.20
2022-10-04T03:39:38.665Z,5.15
2022-10-04T03:42:11.913Z,5.30
2022-10-04T03:44:40.713Z,5.00
2022-10-04T03:47:10.388Z,4.43
2022-10-04T03:49:37.741Z,4.68
2022-10-04T03:52:05.290Z,5.10
2022-10-04T03:54:33.158Z,5.43
2022-10-04T03:57:02.062Z,4.65
2022-10-04T03:59:29.371Z,4.55
2022-10-04T04:02:05.872Z,5.50
2022-10-04T04:04:41.291Z,4.43
2022-10-04T04:07:13.776Z,4.63
2022-10-04T04:09:43.976Z,4.05
2022-10-04T04:12:16.866Z,4.38
2022-10-04T04:14:45.244Z,4.60
2022-10-04T04:17:34.214Z,4.32
2022-10-04T04:20:07.575Z,4.65
2022-10-04T04:22:36.107Z,4.20
2022-10-04T04:25:06.850Z,4.40
2022-10-04T04:27:36.837Z,4.03
2022-10-04T04:30:06.293Z,4.55
2022-10-04T04:35:06.032Z,4.43
2022-10-04T04:37:32.898Z,4.63
2022-10-04T04:40:18.173Z,4.60
2022-10-04T04:42:45.760Z,4.15
2022-10-04T04:45:17.017Z,4.72
2022-10-04T04:47:47.892Z,4.32
2022-10-04T04:50:16.300Z,4.03
2022-10-04T04:52:47.150Z,4.50
2022-10-04T04:55:19.037Z,4.60
2022-10-04T04:57:46.428Z,3.92
2022-10-04T05:00:18.958Z,4.20
2022-10-04T05:02:58.392Z,3.80
2022-10-04T05:05:27.728Z,3.90
2022-10-04T05:08:14.949Z,4.20
2022-10-04T05:10:45.518Z,4.20
2022-10-04T05:13:13.405Z,4.00
2022-10-04T05:15:41.690Z,4.00
2022-10-04T05:18:27.435Z,3.80
2022-10-04T05:20:56.145Z,4.40
2022-10-04T05:23:22.869Z,3.80
2022-10-04T05:25:50.561Z,3.72
2022-10-04T05:28:17.958Z,4.43
2022-10-04T05:31:09.596Z,4.05
2022-10-04T06:15:08.129Z,4.07
2022-10-04T07:37:09.502Z,3.70
2022-10-04T11:25:08.785Z,1.08
2022-10-04T11:27:49.724Z,1.00
2022-10-04T11:30:22.040Z,1.30
2022-10-04T11:33:36.511Z,1.40
2022-10-04T11:36:30.010Z,0.90
2022-10-04T11:39:38.601Z,1.00
2022-10-04T11:42:20.051Z,1.05
2022-10-04T11:45:05.467Z,1.00
2022-10-04T11:47:43.659Z,0.80
2022-10-04T11:50:28.449Z,1.25
2022-10-04T11:53:27.700Z,1.05
2022-10-04T11:59:05.422Z,1.10
2022-10-04T12:02:17.850Z,1.17
2022-10-04T12:05:17.294Z,1.35
2022-10-04T12:07:53.045Z,0.90
2022-10-04T12:10:27.457Z,1.38
2022-10-04T12:13:23.586Z,0.90
2022-10-04T12:16:07.952Z,1.17
2022-10-04T12:19:10.954Z,1.20
2022-10-04T12:21:57.559Z,1.13
2022-10-04T12:24:45.262Z,0.90
2022-10-04T12:27:45.363Z,1.08
2022-10-04T12:30:21.655Z,1.05
2022-10-04T12:33:10.163Z,1.17
2022-10-04T12:35:57.305Z,1.00
2022-10-04T12:38:49.662Z,1.02
2022-10-04T12:41:29.062Z,0.80
2022-10-04T12:44:10.718Z,1.00
2022-10-04T12:46:49.845Z,1.30
2022-10-04T12:49:27.378Z,1.30
2022-10-04T12:52:02.237Z,0.95
2022-10-04T12:54:37.884Z,1.00
2022-10-04T12:57:32.769Z,1.02
2022-10-04T13:00:13.109Z,0.93
2022-10-04T13:03:10.938Z,1.45
2022-10-04T13:06:06.050Z,1.10
2022-10-04T13:09:05.563Z,1.40
2022-10-04T13:11:49.163Z,1.10
2022-10-04T13:14:52.539Z,1.08
2022-10-04T13:17:35.849Z,1.00
2022-10-04T13:20:25.032Z,1.20
2022-10-04T13:22:59.013Z,1.45
2022-10-04T13:26:03.394Z,1.15
2022-10-04T13:28:38.940Z,0.95
2022-10-04T13:31:11.256Z,1.35
2022-10-04T13:33:46.903Z,1.00
2022-10-04T13:36:24.197Z,0.90
2022-10-04T13:39:22.194Z,1.30
2022-10-04T13:42:12.099Z,1.00
2022-10-04T13:45:04.507Z,0.90
2022-10-04T13:47:56.983Z,0.90
2022-10-04T13:50:37.009Z,1.40
2022-10-04T13:53:17.924Z,1.00
2022-10-04T13:55:48.888Z,1.20
2022-10-04T13:58:28.471Z,1.23
2022-10-04T14:01:32.863Z,1.10
2022-10-04T14:04:18.160Z,1.02
2022-10-04T14:07:27.337Z,1.05
2022-10-04T14:10:12.650Z,1.05
2022-10-04T14:13:05.137Z,1.00
2022-10-04T14:16:01.029Z,1.38
2022-10-04T14:19:06.847Z,1.42
2022-10-04T14:22:00.578Z,0.90
2022-10-04T14:25:01.501Z,1.23
2022-10-04T14:28:12.946Z,1.02
2022-10-04T14:31:03.738Z,1.20
2022-10-04T14:33:58.271Z,1.30
2022-10-04T14:37:00.841Z,0.82
2022-10-04T14:40:03.431Z,1.20
2022-10-04T14:43:05.749Z,1.52
2022-10-04T14:46:00.231Z,1.20
2022-10-04T14:48:42.980Z,1.20
2022-10-04T14:51:25.821Z,1.80
2022-10-04T14:54:00.531Z,1.55
2022-10-04T14:56:51.733Z,1.65
2022-10-04T14:59:33.997Z,1.20
2022-10-04T15:02:36.259Z,1.30
2022-10-04T15:05:30.364Z,1.33
2022-10-04T15:08:32.983Z,1.25
2022-10-04T15:11:03.514Z,1.30
2022-10-04T15:13:37.158Z,1.52
2022-10-04T15:16:14.664Z,1.30
2022-10-04T15:18:52.304Z,1.20
2022-10-04T15:21:42.545Z,1.00
2022-10-04T15:24:25.689Z,1.35
2022-10-04T15:27:15.930Z,1.20
2022-10-04T15:29:53.106Z,1.10
2022-10-04T15:32:35.468Z,1.00
2022-10-04T15:35:22.390Z,1.55
2022-10-04T15:38:03.177Z,1.40
2022-10-04T15:40:47.547Z,1.52
2022-10-04T15:43:27.118Z,1.13
2022-10-04T15:46:22.171Z,1.30
2022-10-04T15:49:04.765Z,1.60
2022-10-04T15:52:01.154Z,1.30
2022-10-04T15:54:49.689Z,1.30
2022-10-04T15:57:28.307Z,1.13
2022-10-04T16:00:04.448Z,1.50
2022-10-04T16:02:54.903Z,1.20
2022-10-04T16:05:28.666Z,1.27
2022-10-04T16:08:40.579Z,1.48
2022-10-04T16:11:30.189Z,1.40
2022-10-04T16:14:31.391Z,1.35
2022-10-04T16:17:39.402Z,1.20
2022-10-04T16:20:30.913Z,1.30
2022-10-04T16:23:38.948Z,1.33
2022-10-04T16:26:09.409Z,1.50
2022-10-04T16:29:12.401Z,1.40
2022-10-04T16:31:47.374Z,1.60
2022-10-04T16:34:38.185Z,1.20
2022-10-04T16:37:16.189Z,1.40
2022-10-04T16:39:57.372Z,1.70
2022-10-04T16:42:30.026Z,2.00
2022-10-04T16:45:21.075Z,1.45
2022-10-04T16:47:54.882Z,1.60
2022-10-04T16:51:06.485Z,1.60
2022-10-04T16:53:42.739Z,1.77
2022-10-04T16:56:12.875Z,1.30
2022-10-04T16:58:52.503Z,1.73
2022-10-04T17:01:56.390Z,1.42
2022-10-04T17:04:39.122Z,1.70
2022-10-04T17:07:20.423Z,1.55
2022-10-04T17:09:58.127Z,1.60
2022-10-04T17:12:33.123Z,1.60
2022-10-04T17:15:19.871Z,1.73
2022-10-04T17:17:56.798Z,1.90
2022-10-04T17:20:45.868Z,1.58
2022-10-04T17:23:34.428Z,1.45
2022-10-04T17:26:13.584Z,1.67
2022-10-04T17:28:52.911Z,1.95
2022-10-04T17:31:34.705Z,1.70
2022-10-04T17:34:13.492Z,1.92
2022-10-04T17:36:44.732Z,1.85
2022-10-04T17:39:25.185Z,1.92
2022-10-04T17:42:20.257Z,1.73
2022-10-04T17:45:04.389Z,1.85
2022-10-04T17:47:37.194Z,1.83
2022-10-04T17:50:15.179Z,1.52
2022-10-04T17:52:49.273Z,1.95
2022-10-04T17:55:24.043Z,1.73
2022-10-04T17:57:54.919Z,3.25
2022-10-04T18:00:23.302Z,2.50
2022-10-04T18:03:05.464Z,2.15
2022-10-04T18:05:46.671Z,2.40
2022-10-04T18:08:19.213Z,2.80
2022-10-04T18:10:54.028Z,2.47
2022-10-04T18:13:29.462Z,2.53
2022-10-04T18:16:05.484Z,3.10
2022-10-04T18:18:39.875Z,3.50
2022-10-04T18:21:24.770Z,2.40
2022-10-04T18:23:55.704Z,2.70
2022-10-04T18:26:23.623Z,4.10
2022-10-04T18:28:52.346Z,3.53
2022-10-04T18:31:32.052Z,3.92
2022-10-04T18:34:03.245Z,3.70
2022-10-04T18:36:53.615Z,3.50
2022-10-04T18:39:22.843Z,3.35
2022-10-04T18:42:18.495Z,3.20
2022-10-04T18:44:55.359Z,3.13
2022-10-04T18:47:32.377Z,3.80
2022-10-04T18:50:02.198Z,3.40
2022-10-04T18:52:39.274Z,4.93
2022-10-04T18:55:21.046Z,5.18
2022-10-04T18:57:56.831Z,5.15
2022-10-04T19:00:32.207Z,4.97
2022-10-04T19:03:04.972Z,5.13
2022-10-04T19:05:41.818Z,5.30
2022-10-04T19:08:30.832Z,5.60
2022-10-04T19:11:02.931Z,6.10
2022-10-04T19:13:40.846Z,5.28
2022-10-04T19:16:15.514Z,5.82
2022-10-04T19:19:23.644Z,5.60
2022-10-04T19:21:59.505Z,4.97
2022-10-04T19:24:42.521Z,5.25
2022-10-04T19:27:19.847Z,5.75
2022-10-04T19:30:02.922Z,5.15
2022-10-04T19:32:42.494Z,5.50
2022-10-04T19:35:21.427Z,5.22
2022-10-04T19:37:57.838Z,5.10
2022-10-04T19:40:33.479Z,5.10
2022-10-04T19:43:07.386Z,4.50
2022-10-04T19:45:44.825Z,4.60
2022-10-04T19:48:23.337Z,4.18
2022-10-04T19:53:28.395Z,5.00
2022-10-04T19:55:58.151Z,5.18
2022-10-04T19:58:35.540Z,3.78
2022-10-04T20:01:09.674Z,4.28
2022-10-04T20:03:36.542Z,4.30
2022-10-04T20:06:03.830Z,4.15
2022-10-04T20:08:56.744Z,4.07
2022-10-04T20:11:49.202Z,3.97
2022-10-04T20:14:43.708Z,3.72
2022-10-04T20:17:29.270Z,3.80
2022-10-04T20:19:55.931Z,3.20
2022-10-04T20:22:50.512Z,3.92
2022-10-04T20:25:50.573Z,4.25
2022-10-04T20:28:40.968Z,4.25
2022-10-04T20:31:08.469Z,4.22
2022-10-04T20:33:44.660Z,3.38
2022-10-04T20:36:11.537Z,3.80
2022-10-04T20:38:59.541Z,3.30
2022-10-04T20:42:08.172Z,3.53
2022-10-04T20:44:55.391Z,3.53
2022-10-04T20:47:37.267Z,3.80
2022-10-04T20:50:13.494Z,3.30
2022-10-04T20:52:45.582Z,2.95
2022-10-04T20:55:18.438Z,3.30
2022-10-04T20:57:45.050Z,3.88
2022-10-04T21:00:21.423Z,3.30
2022-10-04T21:02:48.629Z,3.15
2022-10-04T21:05:21.527Z,3.47
2022-10-04T21:07:48.118Z,3.47
2022-10-04T21:10:20.129Z,3.30
2022-10-04T21:12:47.452Z,3.30
2022-10-04T21:15:22.741Z,3.42
2022-10-04T21:18:00.879Z,3.30
2022-10-04T21:20:43.232Z,3.47
2022-10-04T21:23:17.600Z,2.97
2022-10-04T21:25:44.754Z,3.33
2022-10-04T21:28:38.420Z,3.20
2022-10-04T21:31:06.966Z,2.67
2022-10-04T21:33:34.948Z,3.00
2022-10-04T21:36:02.619Z,2.90
2022-10-04T21:38:29.281Z,3.08
2022-10-04T21:40:56.351Z,2.90
2022-10-04T21:43:24.085Z,3.65
2022-10-04T21:45:51.083Z,4.35
2022-10-04T21:48:19.088Z,4.38
2022-10-04T21:50:45.721Z,4.05
2022-10-04T21:53:12.289Z,3.83
2022-10-04T21:55:38.898Z,4.25
2022-10-04T21:58:05.576Z,4.28
2022-10-04T22:00:32.189Z,5.03
2022-10-04T22:02:58.761Z,5.72
2022-10-04T22:05:27.095Z,6.30
2022-10-04T22:07:53.667Z,4.97
2022-10-04T22:10:20.269Z,4.93
2022-10-04T22:12:46.912Z,6.00
2022-10-04T22:15:13.529Z,5.85
2022-10-04T22:17:40.146Z,5.90
2022-10-04T22:20:07.379Z,6.18
2022-10-04T22:22:39.636Z,6.57
2022-10-04T22:25:14.502Z,5.95
2022-10-04T22:27:41.147Z,7.18
2022-10-04T22:30:11.591Z,6.47
2022-10-04T22:32:38.208Z,7.10
2022-10-04T22:35:12.889Z,6.78
2022-10-04T22:37:41.363Z,7.65
2022-10-04T22:40:13.853Z,7.30
2022-10-04T22:42:40.494Z,6.75
2022-10-04T22:45:15.646Z,7.63
2022-10-04T22:47:42.296Z,6.75
2022-10-04T22:50:24.503Z,7.00
2022-10-04T22:52:52.526Z,6.72
2022-10-04T22:55:19.296Z,6.68
2022-10-04T22:57:46.148Z,7.00
2022-10-04T23:00:13.486Z,6.65
2022-10-04T23:02:40.227Z,6.60
2022-10-04T23:05:13.261Z,6.28
2022-10-04T23:07:39.964Z,6.22
2022-10-04T23:10:09.152Z,6.05
2022-10-04T23:12:36.078Z,5.93
2022-10-04T23:15:03.481Z,5.90
2022-10-04T23:17:34.035Z,5.97
2022-10-04T23:20:06.128Z,6.53
2022-10-04T23:22:32.853Z,5.72
2022-10-04T23:25:00.041Z,5.80
2022-10-04T23:27:28.447Z,5.97
2022-10-04T23:52:14.077Z,6.57
2022-10-04T23:54:40.727Z,7.25
2022-10-04T23:57:09.776Z,6.07
2022-10-04T23:59:38.591Z,6.75
